createdAt,value
2023-04-13T00:00:10.149Z,99788.66
2023-04-13T00:02:40.196Z,99779.13
2023-04-13T00:05:10.340Z,99781.88
2023-04-13T00:07:39.328Z,99784.31
2023-04-13T00:10:09.757Z,99781.13
2023-04-13T00:12:38.806Z,99780.19
2023-04-13T00:15:07.629Z,99785.16
2023-04-13T00:17:35.648Z,99791.84
2023-04-13T00:20:07.826Z,99786.94
2023-04-13T00:22:35.818Z,99787.34
2023-04-13T00:25:03.872Z,99787.84
2023-04-13T00:27:32.278Z,99788.94
2023-04-13T00:30:00.228Z,99785.53
2023-04-13T00:32:28.234Z,99789.56
2023-04-13T00:34:56.374Z,99783.25
2023-04-13T00:37:25.840Z,99780.22
2023-04-13T00:39:53.806Z,99787.06
2023-04-13T00:42:21.932Z,99781.00
2023-04-13T00:44:49.984Z,99782.09
2023-04-13T00:47:22.541Z,99780.69
2023-04-13T00:49:51.209Z,99775.16
2023-04-13T00:52:19.134Z,99777.28
2023-04-13T00:54:49.860Z,99781.94
2023-04-13T00:57:18.141Z,99782.88
2023-04-13T00:59:49.259Z,99780.41
2023-04-13T01:02:17.509Z,99777.31
2023-04-13T01:04:49.424Z,99774.09
2023-04-13T01:07:25.946Z,99775.34
2023-04-13T01:10:02.788Z,99779.81
2023-04-13T01:12:38.730Z,99784.38
2023-04-13T01:15:10.032Z,99782.41
2023-04-13T01:17:39.507Z,99782.59
2023-04-13T01:20:10.658Z,99786.28
2023-04-13T01:22:42.806Z,99783.75
2023-04-13T01:25:26.035Z,99790.28
2023-04-13T01:27:58.799Z,99791.69
2023-04-13T01:30:28.525Z,99788.16
2023-04-13T01:32:58.368Z,99790.63
2023-04-13T01:35:26.886Z,99782.41
2023-04-13T01:37:55.699Z,99783.75
2023-04-13T01:40:26.028Z,99786.50
2023-04-13T01:42:55.546Z,99780.06
2023-04-13T01:45:26.187Z,99774.00
2023-04-13T01:48:01.202Z,99775.69
2023-04-13T01:50:30.883Z,99776.44
2023-04-13T01:53:08.142Z,99770.59
2023-04-13T01:55:38.601Z,99771.66
2023-04-13T02:04:59.986Z,99776.16
2023-04-13T02:07:29.169Z,99768.41
2023-04-13T02:09:57.215Z,99770.53
2023-04-13T02:12:25.328Z,99772.81
2023-04-13T02:14:54.652Z,99777.25
2023-04-13T02:17:25.664Z,99775.66
2023-04-13T02:19:53.608Z,99784.94
2023-04-13T02:22:22.249Z,99780.06
2023-04-13T02:24:50.211Z,99776.09
2023-04-13T02:27:18.712Z,99775.63
2023-04-13T02:29:46.639Z,99782.72
2023-04-13T02:32:16.136Z,99791.75
2023-04-13T02:34:44.077Z,99793.47
2023-04-13T02:37:11.990Z,99799.69
2023-04-13T02:39:40.075Z,99793.38
2023-04-13T02:42:08.041Z,99805.28
2023-04-13T02:44:36.642Z,99800.56
2023-04-13T02:47:04.685Z,99791.66
2023-04-13T02:49:34.142Z,99800.28
2023-04-13T02:52:02.073Z,99802.09
2023-04-13T02:54:29.994Z,99804.34
2023-04-13T02:56:58.053Z,99791.88
2023-04-13T02:59:26.797Z,99796.63
2023-04-13T03:01:58.875Z,99801.34
2023-04-13T03:04:27.633Z,99797.38
2023-04-13T03:06:57.161Z,99790.75
2023-04-13T03:09:26.559Z,99796.50
2023-04-13T03:11:56.222Z,99789.50
2023-04-13T03:14:24.131Z,99796.38
2023-04-13T03:16:52.252Z,99785.03
2023-04-13T03:19:20.182Z,99786.47
2023-04-13T03:21:48.362Z,99786.19
2023-04-13T03:24:17.698Z,99784.66
2023-04-13T03:26:45.557Z,99783.72
2023-04-13T03:29:13.694Z,99783.25
2023-04-13T03:31:41.815Z,99782.78
2023-04-13T03:34:09.782Z,99786.59
2023-04-13T03:36:37.705Z,99785.63
2023-04-13T03:39:06.082Z,99785.81
2023-04-13T03:41:35.451Z,99784.31
2023-04-13T03:44:03.514Z,99789.97
2023-04-13T03:46:33.322Z,99787.88
2023-04-13T03:49:01.611Z,99791.59
2023-04-13T03:51:29.492Z,99792.06
2023-04-13T03:53:57.705Z,99787.72
2023-04-13T03:56:25.909Z,99786.84
2023-04-13T03:58:55.288Z,99783.25
2023-04-13T04:01:24.211Z,99778.81
2023-04-13T04:03:55.894Z,99780.69
2023-04-13T04:06:24.239Z,99777.22
2023-04-13T04:08:52.264Z,99781.09
2023-04-13T04:11:20.287Z,99787.06
2023-04-13T04:13:48.566Z,99790.72
2023-04-13T04:16:17.949Z,99787.53
2023-04-13T04:18:45.945Z,99788.34
2023-04-13T04:21:16.007Z,99791.50
2023-04-13T04:23:44.600Z,99788.25
2023-04-13T04:26:14.012Z,99789.78
2023-04-13T04:28:42.146Z,99799.03
2023-04-13T04:31:11.790Z,99791.41
2023-04-13T04:33:41.083Z,99784.31
2023-04-13T04:36:14.156Z,99797.72
2023-04-13T04:38:42.339Z,99789.97
2023-04-13T04:41:10.230Z,99793.94
2023-04-13T04:43:38.162Z,99796.13
2023-04-13T04:46:09.019Z,99786.00
2023-04-13T04:48:37.750Z,99794.34
2023-04-13T04:51:09.578Z,99789.50
2023-04-13T04:53:37.488Z,99794.81
2023-04-13T04:56:06.088Z,99793.56
2023-04-13T04:58:34.014Z,99803.97
2023-04-13T05:01:01.969Z,99805.69
2023-04-13T05:03:30.149Z,99800.88
2023-04-13T05:05:58.057Z,99790.81
2023-04-13T05:08:28.768Z,99799.72
2023-04-13T05:10:56.978Z,99806.03
2023-04-13T05:13:24.814Z,99801.44
2023-04-13T05:15:52.767Z,99809.47
2023-04-13T05:18:20.703Z,99803.41
2023-04-13T05:20:48.662Z,99802.44
2023-04-13T05:23:17.148Z,99798.25
2023-04-13T05:25:46.542Z,99801.81
2023-04-13T05:28:14.406Z,99792.72
2023-04-13T05:30:42.377Z,99798.66
2023-04-13T05:33:11.718Z,99796.69
2023-04-13T05:35:40.287Z,99794.38
2023-04-13T05:38:09.382Z,99791.75
2023-04-13T05:40:37.286Z,99799.00
2023-04-13T05:43:07.437Z,99802.56
2023-04-13T05:45:35.691Z,99804.47
2023-04-13T05:48:04.580Z,99803.63
2023-04-13T05:50:32.743Z,99809.16
2023-04-13T05:53:00.721Z,99812.06
2023-04-13T05:55:29.828Z,99812.13
2023-04-13T05:57:57.781Z,99811.59
2023-04-13T06:00:27.853Z,99820.19
2023-04-13T06:02:56.814Z,99825.75
2023-04-13T06:05:25.325Z,99821.94
2023-04-13T06:07:53.765Z,99827.38
2023-04-13T06:10:21.800Z,99824.50
2023-04-13T06:12:50.581Z,99815.09
2023-04-13T06:15:18.764Z,99825.69
2023-04-13T06:17:48.099Z,99827.25
2023-04-13T06:20:16.395Z,99833.31
2023-04-13T06:22:44.489Z,99826.09
2023-04-13T06:25:13.159Z,99819.06
2023-04-13T06:27:43.436Z,99826.56
2023-04-13T06:30:13.058Z,99821.53
2023-04-13T06:32:41.057Z,99825.97
2023-04-13T06:35:11.010Z,99822.66
2023-04-13T06:37:39.597Z,99811.56
2023-04-13T06:40:12.297Z,99810.94
2023-04-13T06:42:41.143Z,99811.38
2023-04-13T06:45:09.940Z,99810.16
2023-04-13T06:47:40.953Z,99806.81
2023-04-13T06:50:13.514Z,99811.13
2023-04-13T06:52:43.757Z,99814.47
2023-04-13T06:55:11.983Z,99815.66
2023-04-13T06:57:39.914Z,99824.38
2023-04-13T07:00:21.759Z,99818.13
2023-04-13T07:02:56.714Z,99812.06
2023-04-13T07:05:26.192Z,99818.78
2023-04-13T07:07:54.052Z,99819.91
2023-04-13T07:10:22.176Z,99826.97
2023-04-13T07:12:50.257Z,99827.44
2023-04-13T07:15:18.197Z,99822.47
2023-04-13T07:17:47.486Z,99823.97
2023-04-13T07:20:16.249Z,99820.34
2023-04-13T07:22:45.608Z,99824.38
2023-04-13T07:25:13.499Z,99824.50
2023-04-13T07:27:41.598Z,99824.22
2023-04-13T07:30:10.232Z,99822.19
2023-04-13T07:32:38.114Z,99834.13
2023-04-13T07:35:07.000Z,99824.59
2023-04-13T07:37:34.893Z,99827.09
2023-04-13T07:40:04.397Z,99821.84
2023-04-13T07:42:32.367Z,99831.94
2023-04-13T07:45:00.426Z,99832.09
2023-04-13T07:47:28.431Z,99816.41
2023-04-13T07:49:56.746Z,99825.22
2023-04-13T07:52:25.012Z,99833.59
2023-04-13T07:54:52.833Z,99830.31
2023-04-13T07:57:22.446Z,99842.59
2023-04-13T07:59:50.258Z,99835.75
2023-04-13T08:02:18.391Z,99834.63
2023-04-13T08:04:46.523Z,99835.09
2023-04-13T08:07:14.594Z,99847.41
2023-04-13T08:09:43.392Z,99845.25
2023-04-13T08:12:11.461Z,99848.53
2023-04-13T08:14:40.902Z,99853.13
2023-04-13T08:17:08.827Z,99867.50
2023-04-13T08:19:37.123Z,99883.16
2023-04-13T08:22:05.471Z,99873.34
2023-04-13T08:24:33.713Z,99877.28
2023-04-13T08:27:01.815Z,99879.31
2023-04-13T08:29:29.856Z,99877.63
2023-04-13T08:31:59.229Z,99869.41
2023-04-13T08:34:27.606Z,99885.91
2023-04-13T08:36:55.535Z,99880.41
2023-04-13T08:39:23.599Z,99891.16
2023-04-13T08:41:51.958Z,99893.19
2023-04-13T08:44:19.823Z,99891.53
2023-04-13T08:46:48.330Z,99887.28
2023-04-13T08:49:19.010Z,99896.31
2023-04-13T08:51:47.367Z,99906.06
2023-04-13T08:54:16.381Z,99904.97
2023-04-13T08:56:47.251Z,99908.97
2023-04-13T08:59:17.246Z,99909.03
2023-04-13T09:01:46.726Z,99911.72
2023-04-13T09:04:19.232Z,99926.00
2023-04-13T09:06:51.373Z,99936.09
2023-04-13T09:09:21.396Z,99922.22
2023-04-13T09:11:51.053Z,99925.59
2023-04-13T09:14:20.775Z,99928.31
2023-04-13T09:16:49.340Z,99939.69
2023-04-13T09:19:17.461Z,99955.38
2023-04-13T09:21:48.679Z,99947.00
2023-04-13T09:24:16.602Z,99940.53
2023-04-13T09:26:45.765Z,99946.84
2023-04-13T09:29:16.498Z,99947.38
2023-04-13T09:31:45.904Z,99949.00
2023-04-13T09:34:14.700Z,99957.66
2023-04-13T09:36:54.038Z,99972.59
2023-04-13T09:39:28.509Z,99970.97
2023-04-13T09:41:58.389Z,99978.19
2023-04-13T09:44:31.268Z,99971.69
2023-04-13T09:47:00.146Z,99974.28
2023-04-13T09:49:37.555Z,99978.91
2023-04-13T09:52:07.505Z,99982.03
2023-04-13T09:54:37.118Z,99980.91
2023-04-13T09:57:05.872Z,99989.13
2023-04-13T09:59:34.275Z,99989.75
2023-04-13T10:02:05.642Z,100001.63
2023-04-13T10:04:36.227Z,99993.22
2023-04-13T10:07:04.995Z,99999.47
2023-04-13T10:09:32.910Z,100003.94
2023-04-13T10:12:02.370Z,100014.81
2023-04-13T10:14:35.604Z,100009.31
2023-04-13T10:17:28.101Z,100017.00
2023-04-13T10:20:01.177Z,100033.13
2023-04-13T10:22:30.669Z,100027.19
2023-04-13T10:24:58.621Z,100029.41
2023-04-13T10:27:28.817Z,100036.75
2023-04-13T10:29:57.682Z,100056.72
2023-04-13T10:32:27.541Z,100058.41
2023-04-13T10:34:56.977Z,100055.88
2023-04-13T10:37:29.995Z,100067.69
2023-04-13T10:40:06.641Z,100057.00
2023-04-13T10:45:20.557Z,100053.78
2023-04-13T10:47:49.118Z,100049.81
2023-04-13T10:50:22.484Z,100049.38
2023-04-13T10:52:58.778Z,100046.97
2023-04-13T10:55:27.340Z,100055.59
2023-04-13T10:57:57.520Z,100066.47
2023-04-13T11:00:38.295Z,100065.56
2023-04-13T11:03:12.591Z,100062.97
2023-04-13T11:05:41.695Z,100073.13
2023-04-13T11:08:10.204Z,100078.94
2023-04-13T11:10:38.116Z,100075.78
2023-04-13T11:13:07.429Z,100079.25
2023-04-13T11:15:35.701Z,100084.78
2023-04-13T11:18:03.766Z,100086.16
2023-04-13T11:20:33.265Z,100093.31
2023-04-13T11:23:02.364Z,100088.56
2023-04-13T11:25:30.825Z,100099.94
2023-04-13T11:28:00.244Z,100092.63
2023-04-13T11:30:30.713Z,100092.25
2023-04-13T11:33:01.079Z,100101.56
2023-04-13T11:35:29.216Z,100093.81
2023-04-13T11:37:57.656Z,100102.69
2023-04-13T11:40:27.818Z,100102.09
2023-04-13T11:42:58.626Z,100104.94
2023-04-13T11:45:30.034Z,100112.50
2023-04-13T11:47:59.171Z,100112.84
2023-04-13T11:50:28.111Z,100111.72
2023-04-13T11:52:57.591Z,100122.47
2023-04-13T11:55:26.517Z,100113.84
2023-04-13T11:57:55.581Z,100114.56
2023-04-13T12:00:27.055Z,100115.69
2023-04-13T12:05:32.398Z,100115.69
2023-04-13T12:08:04.364Z,100116.69
2023-04-13T12:13:20.232Z,100139.00
2023-04-13T12:16:06.046Z,100135.25
2023-04-13T12:18:46.255Z,100127.75
2023-04-13T12:21:17.405Z,100133.94
2023-04-13T12:23:54.218Z,100120.66
2023-04-13T12:28:57.933Z,100136.63
2023-04-13T12:31:26.401Z,100138.25
2023-04-13T12:33:55.765Z,100140.41
2023-04-13T12:36:23.647Z,100140.22
2023-04-13T12:38:52.868Z,100143.28
2023-04-13T12:41:20.877Z,100141.38
2023-04-13T12:43:48.856Z,100146.72
2023-04-13T12:46:17.408Z,100145.09
2023-04-13T12:48:45.355Z,100148.50
2023-04-13T12:51:14.917Z,100159.06
2023-04-13T12:53:42.892Z,100160.50
2023-04-13T12:56:11.111Z,100165.59
2023-04-13T12:58:39.017Z,100166.09
2023-04-13T13:01:07.190Z,100174.16
2023-04-13T13:03:36.937Z,100183.97
2023-04-13T13:06:05.730Z,100175.91
2023-04-13T13:08:38.332Z,100178.03
2023-04-13T13:11:08.327Z,100176.94
2023-04-13T13:13:36.482Z,100187.66
2023-04-13T13:16:04.643Z,100188.69
2023-04-13T13:18:46.666Z,100190.03
2023-04-13T13:21:18.414Z,100201.78
2023-04-13T13:23:47.729Z,100203.97
2023-04-13T13:28:46.768Z,100203.53
2023-04-13T13:31:15.611Z,100205.09
2023-04-13T13:33:43.555Z,100211.75
2023-04-13T13:36:12.753Z,100203.97
2023-04-13T13:38:40.763Z,100202.97
2023-04-13T13:41:10.170Z,100212.47
2023-04-13T13:43:38.689Z,100209.56
2023-04-13T13:46:07.367Z,100217.97
2023-04-13T13:48:35.360Z,100216.13
2023-04-13T13:51:04.838Z,100225.78
2023-04-13T13:53:34.197Z,100237.75
2023-04-13T13:56:03.808Z,100237.59
2023-04-13T13:58:33.175Z,100232.31
2023-04-13T14:01:01.223Z,100239.41
2023-04-13T14:03:29.464Z,100240.59
2023-04-13T14:05:57.447Z,100245.88
2023-04-13T14:08:25.269Z,100246.03
2023-04-13T14:10:53.473Z,100248.56
2023-04-13T14:13:21.474Z,100260.56
2023-04-13T14:15:50.955Z,100271.31
2023-04-13T14:18:19.029Z,100274.22
2023-04-13T14:20:46.957Z,100281.75
2023-04-13T14:23:14.849Z,100285.34
2023-04-13T14:25:42.817Z,100312.06
2023-04-13T14:28:11.657Z,100339.69
2023-04-13T14:30:40.852Z,100333.28
2023-04-13T14:33:10.326Z,100341.34
2023-04-13T14:35:38.904Z,100349.06
2023-04-13T14:38:08.308Z,100350.00
2023-04-13T14:40:36.833Z,100352.69
2023-04-13T14:43:04.840Z,100351.00
2023-04-13T14:45:32.862Z,100360.94
2023-04-13T14:48:01.210Z,100359.97
2023-04-13T14:50:31.214Z,100359.34
2023-04-13T14:52:59.283Z,100372.38
2023-04-13T14:55:27.837Z,100364.66
2023-04-13T14:57:58.429Z,100370.25
2023-04-13T15:00:39.080Z,100372.66
2023-04-13T15:03:08.544Z,100372.53
2023-04-13T15:05:39.774Z,100383.69
2023-04-13T15:08:11.819Z,100390.63
2023-04-13T15:10:40.042Z,100385.53
2023-04-13T15:13:09.430Z,100392.06
2023-04-13T15:15:38.725Z,100390.75
2023-04-13T15:18:06.769Z,100378.66
2023-04-13T15:20:35.160Z,100389.16
2023-04-13T15:23:04.665Z,100392.00
2023-04-13T15:25:32.631Z,100392.97
2023-04-13T15:28:00.649Z,100402.09
2023-04-13T15:30:30.901Z,100395.16
2023-04-13T15:33:02.176Z,100388.97
2023-04-13T15:35:31.283Z,100401.38
2023-04-13T15:38:02.338Z,100399.34
2023-04-13T15:40:33.920Z,100408.00
2023-04-13T15:43:01.915Z,100415.03
2023-04-13T15:45:29.866Z,100423.53
2023-04-13T15:47:58.217Z,100422.94
2023-04-13T15:50:26.159Z,100427.56
2023-04-13T15:52:54.089Z,100423.53
2023-04-13T15:55:22.356Z,100425.84
2023-04-13T15:57:53.730Z,100425.13
2023-04-13T16:00:22.396Z,100434.25
2023-04-13T16:02:50.586Z,100446.94
2023-04-13T16:05:19.980Z,100458.50
2023-04-13T16:07:48.065Z,100453.53
2023-04-13T16:10:16.984Z,100450.06
2023-04-13T16:12:45.505Z,100458.94
2023-04-13T16:15:14.782Z,100459.69
2023-04-13T16:17:44.151Z,100464.97
2023-04-13T16:20:19.969Z,100470.69
2023-04-13T16:22:53.087Z,100473.38
2023-04-13T16:25:21.224Z,100481.69
2023-04-13T16:27:49.363Z,100490.94
2023-04-13T16:30:21.099Z,100488.00
2023-04-13T16:32:50.911Z,100489.72
2023-04-13T16:35:19.024Z,100494.34
2023-04-13T16:37:47.837Z,100488.38
2023-04-13T16:40:16.787Z,100502.00
2023-04-13T16:42:44.901Z,100504.81
2023-04-13T16:45:15.059Z,100529.44
2023-04-13T16:47:44.977Z,100543.56
2023-04-13T16:50:13.568Z,100555.88
2023-04-13T16:52:41.774Z,100559.31
2023-04-13T16:55:14.127Z,100583.34
2023-04-13T16:57:43.048Z,100592.31
2023-04-13T17:00:12.621Z,100597.56
2023-04-13T17:02:41.857Z,100602.63
2023-04-13T17:05:12.796Z,100602.97
2023-04-13T17:07:42.489Z,100604.66
2023-04-13T17:10:12.542Z,100595.16
2023-04-13T17:12:40.841Z,100596.53
2023-04-13T17:15:10.109Z,100591.66
2023-04-13T17:17:38.724Z,100594.31
2023-04-13T17:20:08.484Z,100590.03
2023-04-13T17:22:37.946Z,100587.78
2023-04-13T17:25:06.972Z,100592.25
2023-04-13T17:27:34.960Z,100590.13
2023-04-13T17:30:02.958Z,100597.31
2023-04-13T17:32:31.139Z,100602.13
2023-04-13T17:34:59.142Z,100595.91
2023-04-13T17:37:29.312Z,100597.84
2023-04-13T17:39:58.788Z,100607.44
2023-04-13T17:42:26.745Z,100609.81
2023-04-13T17:44:55.015Z,100613.03
2023-04-13T17:47:24.575Z,100621.78
2023-04-13T17:49:52.538Z,100626.16
2023-04-13T17:52:21.429Z,100618.13
2023-04-13T17:54:49.383Z,100621.09
2023-04-13T17:57:18.834Z,100636.31
2023-04-13T17:59:47.216Z,100639.81
2023-04-13T18:02:15.365Z,100642.19
2023-04-13T18:04:43.479Z,100640.16
2023-04-13T18:07:11.443Z,100637.09
2023-04-13T18:09:39.881Z,100646.03
2023-04-13T18:12:08.354Z,100651.88
2023-04-13T18:14:37.837Z,100651.56
2023-04-13T18:17:06.107Z,100656.50
2023-04-13T18:19:34.789Z,100655.56
2023-04-13T18:22:02.713Z,100662.50
2023-04-13T18:24:30.921Z,100672.78
2023-04-13T18:26:58.907Z,100677.63
2023-04-13T18:29:26.837Z,100678.84
2023-04-13T18:31:56.282Z,100690.22
2023-04-13T18:34:24.245Z,100698.59
2023-04-13T18:36:52.444Z,100699.41
2023-04-13T18:39:22.313Z,100714.28
2023-04-13T18:41:50.924Z,100706.63
2023-04-13T18:44:18.821Z,100713.50
2023-04-13T18:46:48.395Z,100720.72
2023-04-13T18:49:17.747Z,100723.31
2023-04-13T18:51:45.766Z,100720.84
2023-04-13T18:54:13.847Z,100727.00
2023-04-13T18:56:41.853Z,100731.84
2023-04-13T18:59:10.042Z,100734.50
2023-04-13T19:01:38.222Z,100743.06
2023-04-13T19:04:06.604Z,100756.78
2023-04-13T19:06:36.499Z,100756.56
2023-04-13T19:09:05.149Z,100778.72
2023-04-13T19:11:47.158Z,100773.53
2023-04-13T19:14:15.126Z,100780.84
2023-04-13T19:16:45.875Z,100780.84
2023-04-13T19:19:15.833Z,100800.81
2023-04-13T19:21:45.759Z,100791.84
2023-04-13T19:24:14.190Z,100788.44
2023-04-13T19:26:43.949Z,100792.56
2023-04-13T19:29:13.291Z,100787.50
2023-04-13T19:31:43.233Z,100775.56
2023-04-13T19:34:12.488Z,100780.34
2023-04-13T19:36:41.855Z,100778.34
2023-04-13T19:39:11.560Z,100782.41
2023-04-13T19:41:41.149Z,100773.53
2023-04-13T19:44:10.109Z,100782.91
2023-04-13T19:46:38.685Z,100777.47
2023-04-13T19:49:06.998Z,100786.34
2023-04-13T19:51:35.445Z,100785.47
2023-04-13T19:54:04.987Z,100786.34
2023-04-13T19:56:35.892Z,100786.34
2023-04-13T19:59:08.002Z,100782.09
2023-04-13T20:01:36.314Z,100790.00
2023-04-13T20:04:05.630Z,100786.66
2023-04-13T20:06:34.235Z,100787.72
2023-04-13T20:09:09.594Z,100789.41
2023-04-13T20:11:39.027Z,100788.22
2023-04-13T20:14:07.138Z,100800.38
2023-04-13T20:16:36.610Z,100802.66
2023-04-13T20:19:06.849Z,100798.69
2023-04-13T20:21:35.045Z,100806.81
2023-04-13T20:24:03.354Z,100811.38
2023-04-13T20:26:32.778Z,100817.19
2023-04-13T20:29:04.107Z,100819.13
2023-04-13T20:31:33.913Z,100819.66
2023-04-13T20:34:03.152Z,100818.84
2023-04-13T20:36:31.660Z,100822.63
2023-04-13T20:39:00.626Z,100814.25
2023-04-13T20:41:29.972Z,100826.16
2023-04-13T20:43:58.786Z,100828.81
2023-04-13T20:46:34.208Z,100828.44
2023-04-13T20:49:04.468Z,100822.34
2023-04-13T20:51:33.986Z,100833.88
2023-04-13T20:54:05.644Z,100840.34
2023-04-13T20:56:33.840Z,100852.56
2023-04-13T20:59:03.599Z,100851.69
2023-04-13T21:01:33.148Z,100849.81
2023-04-13T21:04:01.596Z,100854.16
2023-04-13T21:06:30.208Z,100839.91
2023-04-13T21:08:59.184Z,100847.19
2023-04-13T21:11:27.562Z,100844.34
2023-04-13T21:13:55.939Z,100838.16
2023-04-13T21:16:26.066Z,100838.34
2023-04-13T21:18:58.568Z,100847.66
2023-04-13T21:21:27.960Z,100847.84
2023-04-13T21:23:56.271Z,100855.09
2023-04-13T21:26:24.649Z,100848.53
2023-04-13T21:28:52.838Z,100839.44
2023-04-13T21:31:20.894Z,100846.09
2023-04-13T21:33:49.964Z,100846.38
2023-04-13T21:38:50.889Z,100838.41
2023-04-13T21:41:20.177Z,100843.44
2023-04-13T21:43:48.934Z,100843.34
2023-04-13T21:46:17.589Z,100834.34
2023-04-13T21:48:45.707Z,100842.72
2023-04-13T21:51:13.848Z,100853.19
2023-04-13T21:53:43.160Z,100854.81
2023-04-13T21:56:11.399Z,100861.03
2023-04-13T21:58:40.465Z,100858.03
2023-04-13T22:01:09.058Z,100855.53
2023-04-13T22:03:38.630Z,100855.94
2023-04-13T22:06:08.277Z,100852.16
2023-04-13T22:08:36.826Z,100855.16
2023-04-13T22:11:06.745Z,100856.22
2023-04-13T22:13:34.894Z,100860.69
2023-04-13T22:16:02.987Z,100857.34
2023-04-13T22:18:31.190Z,100850.81
2023-04-13T22:21:00.025Z,100842.72
2023-04-13T22:23:29.319Z,100848.91
2023-04-13T22:25:59.054Z,100843.50
2023-04-13T22:28:28.668Z,100844.00
2023-04-13T22:30:56.878Z,100844.19
2023-04-13T22:33:25.286Z,100844.28
2023-04-13T22:35:53.267Z,100855.06
2023-04-13T22:38:21.384Z,100851.06
2023-04-13T22:40:49.810Z,100857.50
2023-04-13T22:43:20.165Z,100853.56
2023-04-13T22:45:58.459Z,100854.25
2023-04-13T22:48:26.780Z,100866.78
2023-04-13T22:50:54.771Z,100863.06
2023-04-13T22:53:23.188Z,100862.38
2023-04-13T22:55:52.201Z,100860.09
2023-04-13T22:58:20.215Z,100863.59
2023-04-13T23:00:49.703Z,100870.06
2023-04-13T23:03:17.821Z,100874.63
2023-04-13T23:05:46.012Z,100877.25
2023-04-13T23:08:14.129Z,100875.44
2023-04-13T23:10:42.178Z,100888.22
2023-04-13T23:13:10.209Z,100889.91
2023-04-13T23:15:39.544Z,100894.56
2023-04-13T23:18:09.187Z,100897.84
2023-04-13T23:20:37.110Z,100904.78
2023-04-13T23:23:05.408Z,100905.63
2023-04-13T23:25:33.377Z,100904.25
2023-04-13T23:28:01.450Z,100909.41
2023-04-13T23:30:29.992Z,100914.22
2023-04-13T23:32:58.073Z,100913.84
2023-04-13T23:35:27.454Z,100915.09
2023-04-13T23:37:55.657Z,100916.72
2023-04-13T23:40:23.629Z,100919.00
2023-04-13T23:42:51.608Z,100926.53
2023-04-13T23:45:19.646Z,100922.59
2023-04-13T23:47:47.618Z,100924.16
2023-04-13T23:50:17.838Z,100923.81
2023-04-13T23:52:47.346Z,100932.75
2023-04-13T23:55:15.575Z,100925.50
2023-04-13T23:57:43.480Z,100932.56
